Adams, Massachusetts
Current Conditions -  °F | °C
As of 11:52 PM on Friday 19 Dec 2014 (Local Time) from KAQW Reporting Station
Overcast Overcast  
Wind Chill: 17°   Ceiling: 2100
Heat Index: 25°   Visibility: 10mi
Dew Point: 18°   Wind: 7mph
Humidity: 75%   Direction: NA
Pressure: 30.17"   Gusts: NA
Location:  42.62°N, 73.12°W
Report Text: KAQW 200452Z AUTO VRB06KT 10SM OVC021 M04/M08 A3017 RMK AO2 SLP226 T10391078 410061039
Loading
Personal Weather Stations






























Interactive Weather Map New forecast layout! Learn more

10-Day Weather Forecast

Advertisements
Track Severe Weather on mobile